Terminal Aerodrome Forecast
Issued by NWS

Home | Current Version | Previous Version | Text Only | Print | Product List | Glossary On
Versions: 1 2 3 4 5 6 7 8 9 10 11 12 13 14
667
FTUS42 KTAE 280528
TAFECP
TAF
KECP 280528Z 2806/2906 26004KT P6SM SCT050 BKN100
     FM281200 25008KT P6SM -SHRA BKN030 BKN100
     FM281600 24010KT P6SM VCTS BKN035CB
     FM281800 25009KT P6SM SCT040=

USA.gov is the U.S. government's official web portal to all federal, state and local government web resources and services.